Venetian Village, Illinois
Current Conditions -  °F | °C
As of 2:55 PM on Tuesday 21 Oct 2014 (Local Time) from KUGN Reporting Station
Overcast Overcast  
Wind Chill: 44°   Ceiling: 2200
Heat Index: 48°   Visibility: 10mi
Dew Point: 39°   Wind: 9mph
Humidity: 71%   Direction: 350°N
Pressure: 30.19"   Gusts: NA
Location:  42.4132°N, 88.0615°W
Report Text: KUGN 211955Z 35008KT 10SM OVC022 09/04 A3019 RMK AO2 SLP227 T00890039
Loading
Personal Weather Stations






























Interactive Weather Map
Tropical Storm Tracking
New forecast layout! Learn more

10-Day Weather Forecast

Advertisements
Track Severe Weather on mobile